sensor_id;sensor_type;location;lat;lon;timestamp;pressure;altitude;pressure_sealevel;temperature;humidity
55077;BME280;40971;44.702;11.030;2023-05-02T00:04:40;101150.75;;;11.71;97.14
55077;BME280;40971;44.702;11.030;2023-05-02T00:14:42;101144.19;;;11.75;96.82
55077;BME280;40971;44.702;11.030;2023-05-02T00:24:43;101128.75;;;11.88;96.61
55077;BME280;40971;44.702;11.030;2023-05-02T00:34:45;101113.91;;;11.87;96.84
55077;BME280;40971;44.702;11.030;2023-05-02T00:44:47;101091.69;;;11.90;96.60
55077;BME280;40971;44.702;11.030;2023-05-02T00:54:50;101090.22;;;11.87;96.92
55077;BME280;40971;44.702;11.030;2023-05-02T01:15:07;101055.63;;;11.98;97.20
55077;BME280;40971;44.702;11.030;2023-05-02T01:35:20;101031.59;;;12.01;97.11
55077;BME280;40971;44.702;11.030;2023-05-02T01:55:44;101023.53;;;12.27;96.34
55077;BME280;40971;44.702;11.030;2023-05-02T02:05:48;101019.91;;;12.28;96.40
55077;BME280;40971;44.702;11.030;2023-05-02T02:15:56;101016.09;;;12.39;95.99
55077;BME280;40971;44.702;11.030;2023-05-02T02:26:01;101017.41;;;12.35;96.14
55077;BME280;40971;44.702;11.030;2023-05-02T02:36:13;101012.47;;;12.32;95.41
55077;BME280;40971;44.702;11.030;2023-05-02T02:56:41;101015.75;;;12.25;96.16
55077;BME280;40971;44.702;11.030;2023-05-02T03:06:47;101017.75;;;12.23;95.90
55077;BME280;40971;44.702;11.030;2023-05-02T03:16:49;101019.75;;;12.21;96.32
55077;BME280;40971;44.702;11.030;2023-05-02T03:26:58;101017.75;;;12.23;96.09
55077;BME280;40971;44.702;11.030;2023-05-02T03:37:01;101030.28;;;12.21;96.80
55077;BME280;40971;44.702;11.030;2023-05-02T03:47:03;101040.50;;;12.24;96.58
55077;BME280;40971;44.702;11.030;2023-05-02T03:57:06;101036.72;;;12.27;96.42
55077;BME280;40971;44.702;11.030;2023-05-02T04:07:09;101056.66;;;12.21;97.17
55077;BME280;40971;44.702;11.030;2023-05-02T04:17:17;101079.22;;;12.16;97.39
55077;BME280;40971;44.702;11.030;2023-05-02T04:27:20;101066.53;;;12.11;97.43
55077;BME280;40971;44.702;11.030;2023-05-02T04:37:21;101098.50;;;12.08;97.70
55077;BME280;40971;44.702;11.030;2023-05-02T04:47:25;101102.91;;;12.00;97.60
55077;BME280;40971;44.702;11.030;2023-05-02T04:57:28;101136.34;;;11.99;97.58
55077;BME280;40971;44.702;11.030;2023-05-02T05:07:29;101161.34;;;11.95;97.46
55077;BME280;40971;44.702;11.030;2023-05-02T05:17:31;101173.25;;;11.99;97.21
55077;BME280;40971;44.702;11.030;2023-05-02T05:27:35;101190.03;;;12.06;96.59
55077;BME280;40971;44.702;11.030;2023-05-02T05:37:37;101210.81;;;12.09;96.65
55077;BME280;40971;44.702;11.030;2023-05-02T05:47:41;101218.91;;;12.24;96.31
55077;BME280;40971;44.702;11.030;2023-05-02T05:57:44;101237.53;;;12.22;96.39
55077;BME280;40971;44.702;11.030;2023-05-02T06:07:46;101262.78;;;12.33;96.01
55077;BME280;40971;44.702;11.030;2023-05-02T06:17:51;101265.94;;;12.45;96.12
55077;BME280;40971;44.702;11.030;2023-05-02T06:27:53;101271.53;;;12.42;95.84
55077;BME280;40971;44.702;11.030;2023-05-02T06:37:57;101290.34;;;12.55;94.69
55077;BME280;40971;44.702;11.030;2023-05-02T06:48:00;101292.31;;;12.53;94.14
55077;BME280;40971;44.702;11.030;2023-05-02T06:58:01;101312.28;;;12.55;94.93
55077;BME280;40971;44.702;11.030;2023-05-02T07:08:03;101320.19;;;12.55;95.20
55077;BME280;40971;44.702;11.030;2023-05-02T07:18:04;101316.72;;;12.55;95.22
55077;BME280;40971;44.702;11.030;2023-05-02T07:28:07;101329.91;;;12.63;94.83
55077;BME280;40971;44.702;11.030;2023-05-02T07:38:08;101340.16;;;12.74;94.57
55077;BME280;40971;44.702;11.030;2023-05-02T07:48:09;101335.72;;;12.66;94.14
55077;BME280;40971;44.702;11.030;2023-05-02T07:58:11;101341.94;;;12.57;94.75
55077;BME280;40971;44.702;11.030;2023-05-02T08:08:12;101355.47;;;12.62;94.67
55077;BME280;40971;44.702;11.030;2023-05-02T08:18:13;101364.22;;;12.71;95.13
55077;BME280;40971;44.702;11.030;2023-05-02T08:28:14;101353.03;;;12.69;94.85
55077;BME280;40971;44.702;11.030;2023-05-02T08:38:15;101372.38;;;12.94;94.63
55077;BME280;40971;44.702;11.030;2023-05-02T08:48:16;101389.75;;;13.12;94.09
55077;BME280;40971;44.702;11.030;2023-05-02T08:58:20;101392.56;;;13.19;93.58
55077;BME280;40971;44.702;11.030;2023-05-02T09:08:24;101399.84;;;13.17;93.92
55077;BME280;40971;44.702;11.030;2023-05-02T09:18:30;101411.69;;;13.13;93.98
55077;BME280;40971;44.702;11.030;2023-05-02T09:38:49;101413.88;;;13.41;93.75
55077;BME280;40971;44.702;11.030;2023-05-02T09:48:55;101422.44;;;13.35;92.86
55077;BME280;40971;44.702;11.030;2023-05-02T09:59:12;101422.13;;;13.38;93.35
55077;BME280;40971;44.702;11.030;2023-05-02T10:09:20;101428.38;;;13.46;93.84
55077;BME280;40971;44.702;11.030;2023-05-02T10:19:32;101437.31;;;13.45;93.74
55077;BME280;40971;44.702;11.030;2023-05-02T10:29:41;101435.66;;;13.43;94.06
55077;BME280;40971;44.702;11.030;2023-05-02T10:39:42;101433.03;;;13.35;93.84
55077;BME280;40971;44.702;11.030;2023-05-02T10:59:51;101447.91;;;13.53;94.04
55077;BME280;40971;44.702;11.030;2023-05-02T11:20:18;101441.59;;;13.37;94.53
55077;BME280;40971;44.702;11.030;2023-05-02T11:30:42;101466.06;;;13.48;95.46
55077;BME280;40971;44.702;11.030;2023-05-02T11:40:56;101465.03;;;13.49;94.82
55077;BME280;40971;44.702;11.030;2023-05-02T11:50:58;101475.97;;;13.54;94.60
55077;BME280;40971;44.702;11.030;2023-05-02T12:01:14;101483.22;;;13.60;94.38
55077;BME280;40971;44.702;11.030;2023-05-02T12:11:17;101496.47;;;13.68;94.92
55077;BME280;40971;44.702;11.030;2023-05-02T12:21:19;101490.66;;;13.56;93.61
55077;BME280;40971;44.702;11.030;2023-05-02T12:31:20;101498.41;;;13.66;93.58
55077;BME280;40971;44.702;11.030;2023-05-02T12:41:37;101501.75;;;13.68;93.07
55077;BME280;40971;44.702;11.030;2023-05-02T12:51:52;101508.19;;;13.73;93.00
55077;BME280;40971;44.702;11.030;2023-05-02T13:01:53;101510.66;;;13.83;92.82
55077;BME280;40971;44.702;11.030;2023-05-02T13:11:56;101510.34;;;13.86;93.09
55077;BME280;40971;44.702;11.030;2023-05-02T13:21:58;101521.09;;;13.84;91.95
55077;BME280;40971;44.702;11.030;2023-05-02T13:32:00;101522.72;;;13.77;92.92
55077;BME280;40971;44.702;11.030;2023-05-02T13:42:01;101510.00;;;13.65;93.19
55077;BME280;40971;44.702;11.030;2023-05-02T13:52:06;101522.38;;;13.80;93.23
55077;BME280;40971;44.702;11.030;2023-05-02T14:02:07;101505.88;;;13.70;92.94
55077;BME280;40971;44.702;11.030;2023-05-02T14:12:08;101518.06;;;13.71;92.60
55077;BME280;40971;44.702;11.030;2023-05-02T14:22:09;101524.53;;;13.69;92.72
55077;BME280;40971;44.702;11.030;2023-05-02T14:32:11;101533.09;;;13.71;92.58
55077;BME280;40971;44.702;11.030;2023-05-02T14:42:12;101531.47;;;13.70;91.60
55077;BME280;40971;44.702;11.030;2023-05-02T14:52:13;101537.09;;;13.75;92.37
55077;BME280;40971;44.702;11.030;2023-05-02T15:02:14;101546.31;;;13.63;91.17
55077;BME280;40971;44.702;11.030;2023-05-02T15:12:15;101554.72;;;13.58;91.78
55077;BME280;40971;44.702;11.030;2023-05-02T15:22:17;101559.69;;;13.61;92.17
55077;BME280;40971;44.702;11.030;2023-05-02T15:32:18;101562.47;;;13.60;91.78
55077;BME280;40971;44.702;11.030;2023-05-02T15:42:19;101560.19;;;13.57;91.59
55077;BME280;40971;44.702;11.030;2023-05-02T15:52:20;101564.81;;;13.63;91.94
55077;BME280;40971;44.702;11.030;2023-05-02T16:02:21;101561.50;;;13.53;92.82
55077;BME280;40971;44.702;11.030;2023-05-02T16:12:22;101562.78;;;13.49;92.50
55077;BME280;40971;44.702;11.030;2023-05-02T16:22:24;101577.31;;;13.45;92.53
55077;BME280;40971;44.702;11.030;2023-05-02T16:32:27;101576.81;;;13.41;92.74
55077;BME280;40971;44.702;11.030;2023-05-02T16:42:29;101568.69;;;13.34;92.99
55077;BME280;40971;44.702;11.030;2023-05-02T16:52:30;101583.16;;;13.14;92.79
55077;BME280;40971;44.702;11.030;2023-05-02T17:02:31;101591.41;;;13.19;92.88
55077;BME280;40971;44.702;11.030;2023-05-02T17:12:32;101595.03;;;13.18;93.02
55077;BME280;40971;44.702;11.030;2023-05-02T17:22:34;101604.59;;;13.11;93.81
55077;BME280;40971;44.702;11.030;2023-05-02T17:32:37;101619.41;;;13.12;93.88
55077;BME280;40971;44.702;11.030;2023-05-02T17:42:41;101625.00;;;13.09;94.11
55077;BME280;40971;44.702;11.030;2023-05-02T17:52:43;101638.91;;;13.11;93.13
55077;BME280;40971;44.702;11.030;2023-05-02T18:02:44;101656.31;;;13.04;93.08
55077;BME280;40971;44.702;11.030;2023-05-02T18:12:46;101655.59;;;12.94;94.03
55077;BME280;40971;44.702;11.030;2023-05-02T18:22:47;101675.03;;;12.93;94.13
55077;BME280;40971;44.702;11.030;2023-05-02T18:32:48;101673.34;;;12.84;94.55
55077;BME280;40971;44.702;11.030;2023-05-02T18:42:49;101688.19;;;12.85;94.54
55077;BME280;40971;44.702;11.030;2023-05-02T18:52:51;101708.75;;;12.81;95.01
55077;BME280;40971;44.702;11.030;2023-05-02T19:13:30;101722.78;;;12.82;95.41
55077;BME280;40971;44.702;11.030;2023-05-02T19:23:32;101736.28;;;12.79;95.42
55077;BME280;40971;44.702;11.030;2023-05-02T19:33:33;101746.53;;;12.82;95.81
55077;BME280;40971;44.702;11.030;2023-05-02T19:54:12;101774.84;;;12.72;96.70
55077;BME280;40971;44.702;11.030;2023-05-02T20:04:14;101790.00;;;12.70;97.02
55077;BME280;40971;44.702;11.030;2023-05-02T20:14:15;101792.78;;;12.86;96.80
55077;BME280;40971;44.702;11.030;2023-05-02T20:24:17;101805.66;;;12.89;95.94
55077;BME280;40971;44.702;11.030;2023-05-02T20:34:19;101810.41;;;12.85;95.64
55077;BME280;40971;44.702;11.030;2023-05-02T20:44:20;101810.03;;;12.63;95.61
55077;BME280;40971;44.702;11.030;2023-05-02T20:54:22;101813.25;;;12.57;96.08
55077;BME280;40971;44.702;11.030;2023-05-02T21:04:41;101817.47;;;12.50;95.29
55077;BME280;40971;44.702;11.030;2023-05-02T21:14:42;101834.22;;;12.58;95.02
55077;BME280;40971;44.702;11.030;2023-05-02T21:24:43;101831.63;;;12.49;94.75
55077;BME280;40971;44.702;11.030;2023-05-02T21:34:48;101820.88;;;12.42;94.81
55077;BME280;40971;44.702;11.030;2023-05-02T21:44:49;101825.50;;;12.31;94.43
55077;BME280;40971;44.702;11.030;2023-05-02T21:54:51;101845.78;;;12.30;94.87
55077;BME280;40971;44.702;11.030;2023-05-02T22:04:52;101852.16;;;12.27;95.33
55077;BME280;40971;44.702;11.030;2023-05-02T22:14:55;101847.47;;;12.21;95.27
55077;BME280;40971;44.702;11.030;2023-05-02T22:24:57;101863.75;;;12.17;95.56
55077;BME280;40971;44.702;11.030;2023-05-02T22:34:58;101872.44;;;12.17;95.62
55077;BME280;40971;44.702;11.030;2023-05-02T22:45:18;101879.09;;;12.21;95.34
55077;BME280;40971;44.702;11.030;2023-05-02T23:05:39;101884.66;;;12.18;95.31
55077;BME280;40971;44.702;11.030;2023-05-02T23:15:40;101882.59;;;12.22;95.90
55077;BME280;40971;44.702;11.030;2023-05-02T23:25:41;101877.59;;;12.19;96.92
55077;BME280;40971;44.702;11.030;2023-05-02T23:35:42;101874.50;;;12.23;96.77
55077;BME280;40971;44.702;11.030;2023-05-02T23:45:44;101877.72;;;12.17;97.04
55077;BME280;40971;44.702;11.030;2023-05-02T23:55:45;101878.34;;;12.11;97.26
